Weather observations for the past three days for
Flemingsburg Fleming-Mason Airport
Imperial (Metric)
Date Time (edt) Wind (mph) Vis. (mi.) Weather Sky Cond. Temperature (ºF) Relative Humidity Wind Chill (°F) Heat Index (°F) Pressure Precipitation (in)
Air Dwpt 6 hour altimeter (in) sea level (mb) 1 hr 3 hr 6 hr
Max. Min.
08 21:15 SW 3 10.00 Partly Cloudy SCT120 62.6 38.5 41% 29.87 0.0
08 20:55 W 5 10.00 Fair CLR 62.6 38.3 41% 29.86 0.0
08 20:35 SW 6 10.00 Fair CLR 63 37.9 40% 29.86 0.0
08 20:15 W 6 10.00 Partly Cloudy SCT110 63.9 37.6 38% 29.86 0.0
08 19:55 W 7 10.00 Partly Cloudy SCT100 64.8 37.6 71.1 64.8 37% 29.87 0.0
08 19:35 W 10 G 16 10.00 Mostly Cloudy BKN110 66.7 36.9 33% 29.87 0.0
08 18:55 W 12 G 16 10.00 Fair CLR 68.4 37.6 32% 29.86 0.0
08 18:35 W 14 G 18 10.00 Fair CLR 68.5 38.5 33% 29.87 0.0
08 18:15 W 12 10.00 Fair CLR 69.4 37.2 31% 29.87 0.0
08 17:55 W 9 G 17 10.00 Fair CLR 70 38.3 32% 29.86 0.0
08 17:35 W 17 10.00 Fair CLR 69.8 38.3 32% 29.87 0.0
08 17:15 W 9 10.00 Partly Cloudy SCT095 69.6 39.2 33% 29.88 0.0
08 16:55 W 10 G 20 10.00 Mostly Cloudy BKN095 68 38.1 34% 29.89 0.0
08 16:35 W 13 G 20 10.00 Fair CLR 70.2 37.6 30% 29.89 0.0
08 16:15 W 16 G 21 10.00 Fair CLR 71.1 38.8 31% 29.89 0.0
08 15:55 SW 9 G 21 10.00 Fair CLR 69.1 36.7 31% 29.9 0.0
08 15:35 SW 12 G 18 10.00 Fair CLR 70.2 37.6 30% 29.9 0.0
08 15:15 W 10 G 24 10.00 Fair CLR 70.3 39.9 33% 29.91 0.0
08 14:55 W 15 G 20 10.00 Fair CLR 69.4 39 33% 29.92 0.0
08 14:35 W 15 G 18 10.00 Fair CLR 69.8 39.6 33% 29.94 0.0
08 14:15 W 12 G 23 10.00 Fair CLR 69.1 40.8 36% 29.94 0.0
08 13:55 W 12 G 20 10.00 Fair CLR 68.9 41.5 69.6 45.1 37% 29.95 0.0
08 13:35 W 10 G 18 10.00 Fair CLR 68.2 39.2 35% 29.96 0.0
08 13:15 SW 14 G 20 10.00 Fair CLR 67.3 38.3 35% 29.97 0.0
08 12:55 W 14 G 18 10.00 Fair CLR 67.8 40.8 37% 29.99 0.0
08 12:35 W 13 G 16 10.00 Fair CLR 66.9 40.8 39% 30 0.0
08 12:15 W 9 10.00 Fair CLR 66.4 41 40% 30 0.0
08 11:55 W 13 G 17 10.00 Fair CLR 64.9 39.4 39% 30.01 0.0
08 11:35 W 10 10.00 Fair CLR 64.8 39.6 40% 30.02 0.0
08 11:15 W 10 10.00 Fair CLR 63.7 38.3 39% 30.03 0.0
08 10:55 W 9 10.00 Fair CLR 63 38.1 40% 30.03 0.0
08 10:35 W 10 10.00 Fair CLR 61.9 38.3 42% 30.03 0.0
08 10:15 W 9 10.00 Fair CLR 60.1 38.1 44% 30.03 0.0
08 09:55 W 7 10.00 Fair CLR 59 39.4 48% 30.03 0.0
08 09:35 W 9 10.00 Fair CLR 57.2 38.7 50% 30.03 0.0
08 09:15 SW 7 10.00 Fair CLR 55.4 38.1 52% 30.03 0.0
08 08:55 W 6 10.00 Fair CLR 53.1 38.3 57% 30.03 0.0
08 08:35 SW 7 10.00 Fair CLR 50.2 37.9 63% 30.03 0.0
08 08:15 SW 6 10.00 Fair CLR 47.7 37 67% 45 30.03 0.0
08 07:55 SW 8 10.00 Fair CLR 45 36.3 45 40.3 72% 41 30.03 0.0
08 07:35 SW 8 10.00 Fair CLR 43 35.2 74% 39 30.02 0.0
08 07:15 S 8 10.00 Fair CLR 41.9 34.7 76% 37 30.02 0.0
08 06:55 SW 7 10.00 Fair CLR 41 34.2 77% 37 30.01 0.0
08 06:35 SW 7 10.00 Fair CLR 40.5 34 78% 36 30.01 0.0
08 06:15 SW 7 10.00 Fair CLR 40.5 34.2 78% 36 30.01 0.0
08 05:55 SW 7 10.00 Fair CLR 40.5 34.2 78% 36 30.01 0.0
08 05:35 SW 7 10.00 Fair CLR 40.6 34.2 78% 37 30.01 0.0
08 05:15 SW 7 10.00 Fair CLR 40.5 34.3 79% 36 30.01 0.0
08 04:55 S 7 10.00 Fair CLR 40.3 34.7 81% 36 30 0.0
08 04:35 S 7 10.00 Fair CLR 40.3 34.3 79% 36 30 0.0
08 04:15 S 7 10.00 Fair CLR 41 34.3 77% 37 30 0.0
08 03:55 SW 6 10.00 Fair CLR 41.4 34.3 76% 38 30 0.0
08 03:35 SW 8 10.00 Fair CLR 41.9 34.3 75% 37 30 0.0
08 03:15 SW 6 10.00 Fair CLR 41.7 34.5 76% 38 30 0.0
08 02:55 S 7 10.00 Fair CLR 42.1 33.8 73% 38 30 0.0
08 02:35 S 6 10.00 Fair CLR 43.2 33.4 69% 40 30.01 0.0
08 02:15 SW 5 10.00 Fair CLR 43.5 33.4 68% 41 30.01 0.0
08 01:55 SW 8 10.00 Fair CLR 44.6 32.9 57.4 44.6 64% 41 30.01 0.0
08 01:35 SW 8 10.00 Fair CLR 45.3 32.2 60% 42 30.01 0.0
08 01:15 SW 6 10.00 Fair CLR 46 32 58% 44 30.01 0.0
08 00:55 SW 5 10.00 Fair CLR 45.7 32 59% 44 30.01 0.0
08 00:35 SW 3 10.00 Fair CLR 45.7 32.2 59% 30.02 0.0
08 00:15 SW 5 10.00 Fair CLR 46 32.2 59% 44 30.01 0.0
07 23:55 W 5 10.00 Fair CLR 46.2 32.4 59% 45 30.01 0.0
07 23:35 SW 6 10.00 Fair CLR 48.9 31.5 51% 47 30.01 0.0
07 23:15 W 3 10.00 Fair CLR 49.1 30.9 50% 30.01 0.0
07 22:55 W 3 10.00 Fair CLR 49.5 31.5 50% 30.02 0.0
07 22:35 Calm 10.00 Fair CLR 50.4 30.6 47% 30.01 0.0
07 22:15 NW 3 10.00 Fair CLR 51.1 30 45% 30.01 0.0
07 21:55 Calm 10.00 Fair CLR 52.7 29.8 42% 30 0.0
07 21:35 Calm 10.00 Fair CLR 53.2 29.8 41% 30 0.0
07 21:15 Calm 10.00 Fair CLR 53.8 29.8 40% 30 0.0
07 20:55 Calm 10.00 Fair CLR 54.5 29.8 39% 29.98 0.0
07 20:35 Calm 10.00 Fair CLR 55.4 29.1 37% 29.98 0.0
07 20:15 N 3 10.00 Fair CLR 56.3 29.7 36% 29.98 0.0
07 19:55 N 3 10.00 Fair CLR 57.4 28.6 61.7 57.4 33% 29.97 0.0
07 19:35 N 6 10.00 Fair CLR 58.6 30 34% 29.97 0.0
07 19:15 NW 3 10.00 Fair CLR 59.4 29.3 32% 29.97 0.0
07 18:55 N 7 10.00 Fair CLR 59.4 27.7 30% 29.97 0.0
07 18:35 N 8 10.00 Fair CLR 60.4 27.7 29% 29.97 0.0
07 18:15 N 12 G 17 10.00 Fair CLR 60.6 28 29% 29.97 0.0
07 17:55 N 10 10.00 Fair CLR 60.8 28.8 30% 29.97 0.0
07 17:35 N 8 10.00 Fair CLR 60.8 28.4 29% 29.96 0.0
07 17:15 N 8 10.00 Fair CLR 60.8 29.3 30% 29.96 0.0
07 16:15 N 12 G 17 10.00 Fair CLR 61.5 29.5 30% 29.95 0.0
07 15:55 NW 10 10.00 Fair CLR 60.3 27.5 29% 29.96 0.0
07 15:35 N 12 10.00 Fair CLR 60.4 27.7 29% 29.96 0.0
07 15:15 NW 9 G 17 10.00 Fair CLR 60.3 27.3 29% 29.96 0.0
07 14:35 N 9 G 17 10.00 Fair CLR 59.2 28 31% 29.97 0.0
07 14:15 N 9 G 17 10.00 Fair CLR 59.4 30.9 34% 29.97 0.0
07 13:55 N 5 10.00 Fair CLR 58.3 30 58.6 44.8 34% 29.97 0.0
07 13:35 N 9 G 16 10.00 Partly Cloudy SCT055 58.5 30.9 35% 29.98 0.0
07 13:15 NW 8 10.00 Partly Cloudy SCT055 58.3 33.3 39% 29.99 0.0
07 12:55 NW 10 10.00 Partly Cloudy SCT055 57.7 32.4 38% 30 0.0
07 12:35 NW 3 G 13 10.00 Partly Cloudy SCT055 56.1 30.4 38% 30 0.0
07 12:15 N 9 10.00 Fair CLR 56.5 32 40% 30 0.0
07 11:55 W 5 10.00 Fair CLR 55.9 33.1 42% 30 0.0
07 11:35 NW 14 10.00 Fair CLR 55.8 33.1 42% 30 0.0
07 11:15 N 9 10.00 Fair CLR 55.4 33.3 43% 30 0.0
07 10:55 N 7 10.00 Fair CLR 54.7 34 46% 30 0.0
07 10:35 N 5 10.00 Fair CLR 53.8 34 47% 30 0.0
07 10:15 N 6 10.00 Fair CLR 53.8 34.7 49% 30 0.0
07 09:55 N 7 10.00 Fair CLR 52.2 33.8 50% 30.01 0.0
07 09:35 N 5 10.00 Fair CLR 51.4 36.3 56% 30 0.0
07 09:15 NE 5 10.00 Fair CLR 51.1 37 59% 30 0.0
07 08:55 N 7 10.00 Fair CLR 49.8 37.2 62% 47 30.01 0.0
07 08:35 N 7 10.00 Fair CLR 48.7 39 69% 46 30.01 0.0
07 08:15 N 6 10.00 Fair CLR 46.2 40.5 80% 44 30.02 0.0
07 07:55 N 3 10.00 Fair CLR 44.6 40.3 48.4 41.9 85% 30.01 0.0
07 07:35 NW 3 10.00 Fair CLR 43.3 40.3 89% 30 0.0
07 07:15 NW 3 10.00 Fair CLR 42.3 39.9 91% 30 0.0
07 06:55 NW 3 10.00 Fair CLR 42.1 39.6 91% 29.99 0.0
07 06:35 NW 5 10.00 Fair CLR 41.9 39.9 93% 40 29.99 0.0
07 06:15 NW 5 10.00 Fair CLR 42.3 40.6 94% 40 29.99 0.0
07 05:55 NW 6 10.00 Fair CLR 41.9 40.5 95% 39 29.98 0.0
07 05:35 NW 5 10.00 Fair CLR 42.8 41.4 95% 41 29.98 0.0
07 05:15 NW 3 10.00 Fair CLR 42.6 41.2 95% 29.98 0.0
07 04:55 NW 5 10.00 Fair CLR 43 41.5 95% 41 29.98 0.0
07 04:35 NW 5 10.00 Fair CLR 43.3 41.9 95% 41 29.98 0.0
07 04:15 NW 3 10.00 Fair CLR 43.7 41.9 93% 29.97 0.0
07 03:55 NW 5 10.00 Fair CLR 44.6 42.3 92% 43 29.97 0.0
07 03:35 NW 3 10.00 Fair CLR 45.1 42.6 91% 29.97 0.0
07 03:15 NW 3 10.00 Fair CLR 45.5 42.4 89% 29.98 0.0
07 02:55 Calm 10.00 Partly Cloudy SCT120 45.9 42.8 89% 29.97 0.0
07 02:35 Calm 10.00 Fair CLR 46.4 42.4 86% 29.98 0.0
07 02:15 Calm 10.00 Fair CLR 47.7 39 72% 29.98 0.0
07 01:55 N 3 10.00 Fair CLR 48.4 38.8 56.8 48.4 70% 29.97 0.0
07 01:35 Calm 10.00 Fair CLR 49.8 39 67% 29.98 0.0
07 01:15 Calm 10.00 Partly Cloudy SCT050 50.2 38.8 65% 29.98 0.0
07 00:55 NE 3 10.00 Mostly Cloudy BKN050 51.3 38.5 62% 29.98 0.0
07 00:35 Calm 10.00 Overcast OVC050 51.3 38.3 61% 29.99 0.0
07 00:15 Calm 10.00 Mostly Cloudy BKN050 51.8 38.1 60% 30 0.0
06 23:55 Calm 10.00 Partly Cloudy SCT050 52 37.9 59% 30 0.0
06 23:35 NE 3 10.00 Partly Cloudy SCT050 52.2 38.3 59% 29.99 0.0
06 23:15 NE 3 10.00 Overcast OVC050 52.9 38.7 59% 29.99 0.0
06 22:55 NE 5 10.00 Overcast OVC050 53.6 38.8 58% 29.99 0.0
06 22:35 NE 3 10.00 Overcast OVC050 53.6 39.9 60% 29.98 0.0
06 22:15 N 3 10.00 Overcast OVC050 54 39.6 58% 29.98 0.0
06 21:55 N 3 10.00 Overcast OVC050 54.5 39.6 57% 29.97 0.0
06 21:35 N 5 10.00 Overcast OVC050 54.5 39.4 57% 29.98 0.0
06 21:15 N 5 10.00 Overcast BKN050 OVC065 54.9 39.7 57% 29.97 0.0
06 20:55 N 3 10.00 Overcast BKN050 OVC065 55.4 41.2 59% 29.96 0.0
06 20:35 N 5 10.00 Overcast SCT050 OVC055 55.6 41 58% 29.96 0.0
06 20:15 N 5 10.00 Overcast SCT050 OVC055 56.3 41.4 57% 29.95 0.0
06 19:55 Calm 10.00 Overcast SCT050 OVC055 56.8 40.6 60.1 56.8 55% 29.94 0.0
06 19:35 Calm 10.00 Overcast OVC055 57.2 40.6 54% 29.94 0.0
06 19:15 N 5 10.00 Overcast BKN055 OVC080 57.6 40.5 53% 29.92 0.0
06 18:55 N 3 10.00 Overcast BKN055 OVC080 58.3 40.5 52% 29.92 0.0
06 18:35 N 6 10.00 Overcast SCT055 OVC070 59 41.5 53% 29.92 0.0
06 18:15 N 6 10.00 Overcast OVC070 58.5 41 52% 29.93 0.0
06 17:55 N 5 10.00 Overcast SCT050 OVC070 58.6 40.8 52% 29.93 0.0
06 17:35 N 3 10.00 Overcast OVC050 58.8 40.6 51% 29.92 0.0
06 17:15 N 6 10.00 Overcast SCT044 OVC050 59 41.7 53% 29.91 0.0
06 16:55 N 6 10.00 Overcast OVC042 59.2 42.1 53% 29.91 0.0
06 16:35 Calm 10.00 Overcast BKN042 OVC050 59.7 43.2 54% 29.92 0.0
06 16:15 NW 6 10.00 Overcast SCT040 OVC055 59.5 42.8 54% 29.92 0.0
06 15:55 N 6 10.00 Overcast BKN035 BKN041 OVC055 59.5 43.7 56% 29.92 0.0
06 15:35 N 6 10.00 Overcast OVC033 59.7 44.2 57% 29.93 0.0
06 15:15 N 3 10.00 Overcast OVC033 59.4 44.2 58% 29.92 0.0
06 14:55 NE 6 10.00 Overcast BKN031 OVC055 59.2 44.2 58% 29.91 0.0
06 14:35 NE 3 10.00 Overcast SCT028 BKN033 OVC055 58.5 44.4 60% 29.91 0.0
06 14:15 NW 6 10.00 Overcast BKN027 BKN034 OVC055 58.3 45.3 62% 29.91 0.0
06 13:55 N 7 10.00 Overcast SCT025 OVC031 57.7 45.3 57.7 47.5 63% 29.92 0.0
06 13:35 N 8 10.00 Overcast OVC025 56.8 45.7 66% 29.92 0.0
06 13:15 N 7 10.00 Overcast OVC024 56.1 45.9 69% 29.93 0.0
06 12:55 N 3 10.00 Overcast OVC021 55.2 45.3 69% 29.93 0.0
06 12:35 N 6 10.00 Overcast OVC019 54.3 45.9 73% 29.92 0.0
06 12:15 NW 3 10.00 Overcast OVC019 54 45.9 74% 29.93 0.0
06 11:55 N 6 10.00 Overcast OVC017 54 46 75% 29.93 0.0
06 11:35 N 6 10.00 Overcast OVC013 52.7 45.9 78% 29.91 0.0
06 11:15 N 8 10.00 Overcast OVC011 52.9 46 78% 29.91 0.0
06 10:55 NE 3 10.00 Overcast OVC009 52 46.2 81% 29.91 0.0
06 10:35 NE 3 10.00 Overcast OVC009 49.6 45.1 85% 29.9 0.0
06 10:15 NE 5 10.00 Overcast OVC009 48.9 45 86% 48 29.9 0.0
06 09:55 NE 8 10.00 Overcast OVC009 48.2 44.6 87% 45 29.89 0.0
06 09:35 N 9 G 16 10.00 Overcast OVC009 48.2 44.6 87% 45 29.88 0.0
06 09:15 N 10 10.00 Overcast OVC009 47.8 45.1 90% 44 29.89 0.0
06 08:55 N 8 10.00 Overcast OVC007 47.7 45.1 91% 44 29.88 0.0
06 08:35 N 7 10.00 Overcast OVC007 47.7 45.9 94% 45 29.87 0.0
06 08:15 N 6 10.00 Overcast OVC007 47.7 45.9 94% 45 29.86 0.0
06 07:55 N 3 10.00 Overcast OVC007 47.7 45.9 57.6 47.3 94% 29.85 0.0 0.29
06 07:35 N 6 10.00 Overcast OVC007 47.7 46 94% 45 29.83 0.0
06 07:15 N 7 10.00 Overcast OVC005 47.3 46 95% 44 29.82 0.0
06 06:55 N 8 10.00 Overcast OVC005 47.7 46.6 96% 44 29.8 0.0
06 06:35 N 8 G 16 10.00 Overcast OVC005 48.2 47.3 97% 45 29.79 0.0
06 06:15 N 10 G 16 10.00 Light Drizzle OVC005 48.9 48.2 97% 45 29.78 0.0
06 05:55 N 9 10.00 Rain OVC005 50.2 49.6 98% 29.77 0.0 0.02
06 05:35 NW 15 G 23 4.00 Fog/Mist OVC005 55.2 54.5 97% 29.77 0.0 0.02
06 05:15 W 3 3.00 Drizzle OVC007 56.8 56.3 98% 29.75 0.0 0.01
06 04:55 W 3 3.00 Drizzle BKN007 BKN012 OVC017 56.8 56.3 98% 29.75 0.0 0.08 0.27
06 04:35 Calm 3.00 Light Rain BKN005 OVC013 56.7 56.3 99% 29.74 0.0 0.07
06 04:15 Calm 4.00 Light Rain SCT005 SCT009 OVC014 56.7 56.1 98% 29.74 0.0 0.04
06 03:55 Calm 4.00 Rain OVC016 56.8 56.1 97% 29.74 0.0 0.08
06 03:35 Calm 3.00 Heavy Rain BKN016 OVC023 56.8 55.9 97% 29.74 0.0 0.03
06 03:15 Calm 7.00 Light Drizzle OVC020 56.8 55.9 97% 29.73 0.0
06 02:55 Calm 5.00 Light Rain SCT012 BKN023 OVC027 57.2 56.1 96% 29.73 0.0 0.11
06 02:35 Calm 2.50 Rain SCT014 BKN025 OVC033 57.2 55.9 96% 29.74 0.0 0.05
06 02:15 Calm 10.00 Light Rain OVC033 57.4 55.8 94% 29.74 0.0
06 01:35 Calm 10.00 Overcast OVC041 58.1 55.4 91% 29.74 0.0
06 01:15 SW 6 10.00 Light Rain OVC041 58.3 55.4 90% 29.75 0.0
06 00:55 SW 8 10.00 Overcast OVC041 58.5 55.6 90% 29.76 0.0 0.04
06 00:35 SW 8 10.00 Rain BKN042 OVC048 59.2 55.6 88% 29.78 0.0 0.01
06 00:15 W 14 G 21 10.00 Rain SCT041 OVC048 59.9 55 84% 29.78 0.0
05 23:55 SW 7 10.00 Light Rain BKN050 OVC065 58.6 55.9 91% 29.78 0.0
05 23:35 W 6 10.00 Overcast OVC055 59.7 55 85% 29.77 0.0
05 23:15 W 3 10.00 Drizzle SCT055 OVC065 59.9 55.6 86% 29.78 0.0
05 22:55 Calm 10.00 Light Rain BKN065 OVC075 59.4 55.8 88% 29.77 0.0 0.11
05 22:35 S 3 10.00 Overcast OVC070 59.5 55.9 88% 29.77 0.0
05 22:15 Calm 10.00 Overcast SCT070 OVC080 59.4 56.3 90% 29.77 0.0
05 21:55 S 5 10.00 Rain SCT050 BKN065 OVC110 59.5 56.3 89% 29.77 0.0 0.04
05 21:35 Calm 10.00 Drizzle SCT065 OVC110 59 56.8 93% 29.78 0.0 0.02
Date Time (edt) Wind (mph) Vis. (mi.) Weather Sky Cond. Air Dwpt Max. Min. Relative Humidity Wind Chill (°F) Heat Index (°F) altimeter (in) sea level (mb) 1 hr 3 hr 6 hr
6 hour
Temperature (ºF) Pressure Precipitation (in)